North Sioux City, South Dakota
Current Conditions -  °F | °C
As of 11:52 AM on Tuesday 21 Oct 2014 (Local Time) from KSUX Reporting Station
Clear Clear  
Wind Chill: 66°   Ceiling: Unl
Heat Index: 66°   Visibility: 10mi
Dew Point: 42°   Wind: 9mph
Humidity: 42%   Direction: 150°SSE
Pressure: 30.09"   Gusts: NA
Location:  42.53°N, 96.48°W
Report Text: KSUX 211652Z 15008KT 10SM CLR 19/06 A3009 RMK AO2 SLP191 T01890056
Loading
Personal Weather Stations






























Interactive Weather Map
Tropical Storm Tracking
New forecast layout! Learn more

10-Day Weather Forecast

Advertisements
Track Severe Weather on mobile